Time;durP1;ratioP1;P1;durP2;ratioP2;P2;SDS_P1;SDS_P2;PMS_P1;PMS_P2;Temp;Humidity;BMP_temperature;BMP_pressure;BME280_temperature;BME280_humidity;BME280_pressure;Samples;Min_cycle;Max_cycle;Signal;HPM_P1;HPM_P2
2021/07/26 00:02:20;;;;;;;15.80;7.20;;;;;;;19.94;100.00;101428.30;1766292;81;21139;-82
2021/07/26 00:04:46;;;;;;;21.77;6.90;;;;;;;19.93;100.00;101432.97;1766197;81;20939;-84
2021/07/26 00:07:12;;;;;;;22.35;7.75;;;;;;;19.91;100.00;101435.21;1766309;81;20951;-82
2021/07/26 00:09:38;;;;;;;17.80;6.87;;;;;;;19.88;100.00;101430.34;1766406;81;21140;-82
2021/07/26 00:12:05;;;;;;;13.75;7.37;;;;;;;19.87;100.00;101432.81;1766183;81;20974;-83
2021/07/26 00:14:33;;;;;;;18.20;6.75;;;;;;;19.85;100.00;101430.92;1766360;81;21010;-83
2021/07/26 00:16:59;;;;;;;21.25;7.53;;;;;;;19.81;100.00;101432.65;1766332;81;21061;-83
2021/07/26 00:19:24;;;;;;;17.85;7.87;;;;;;;19.78;100.00;101433.25;1766379;81;21068;-82
2021/07/26 00:21:50;;;;;;;18.30;7.65;;;;;;;19.77;100.00;101428.10;1766348;81;21155;-82
2021/07/26 00:24:18;;;;;;;21.15;7.20;;;;;;;19.76;100.00;101429.19;1766247;81;20994;-85
2021/07/26 00:26:45;;;;;;;16.73;7.90;;;;;;;19.76;100.00;101429.19;1766217;81;21046;-82
2021/07/26 00:29:11;;;;;;;19.32;7.50;;;;;;;19.74;100.00;101430.88;1766238;81;21605;-82
2021/07/26 00:31:37;;;;;;;15.25;7.30;;;;;;;19.73;100.00;101426.50;1766284;81;20872;-83
2021/07/26 00:34:26;;;;;;;19.02;7.08;;;;;;;19.67;100.00;101439.45;1766204;81;22012;-83
2021/07/26 00:36:59;;;;;;;19.65;7.10;;;;;;;19.63;100.00;101439.78;1766220;81;21014;-82
2021/07/26 00:39:31;;;;;;;16.33;6.73;;;;;;;19.58;100.00;101433.58;1766547;81;21609;-83
2021/07/26 00:41:58;;;;;;;20.00;7.33;;;;;;;19.52;100.00;101439.12;1766315;81;21050;-83
2021/07/26 00:44:29;;;;;;;22.05;7.30;;;;;;;19.44;100.00;101433.00;1766094;81;21112;-88
2021/07/26 00:46:56;;;;;;;23.45;7.05;;;;;;;19.43;100.00;101428.62;1765534;81;22214;-83
2021/07/26 00:49:24;;;;;;;15.43;6.75;;;;;;;19.44;100.00;101437.63;1733517;82;21487;-82
2021/07/26 00:51:54;;;;;;;16.05;7.15;;;;;;;19.42;100.00;101435.77;1763749;81;21049;-82
2021/07/26 00:54:30;;;;;;;16.50;7.08;;;;;;;19.40;100.00;101437.42;1733439;82;21011;-82
2021/07/26 00:57:00;;;;;;;18.80;7.72;;;;;;;19.37;100.00;101432.55;1702705;84;21008;-82
2021/07/26 00:59:27;;;;;;;20.72;7.28;;;;;;;19.34;100.00;101434.52;1703064;84;21076;-82
2021/07/26 01:01:53;;;;;;;19.98;7.17;;;;;;;19.32;100.00;101435.36;1703054;84;21040;-83
2021/07/26 01:04:19;;;;;;;14.90;6.92;;;;;;;19.29;100.00;101438.16;1703119;84;21195;-81
2021/07/26 01:06:45;;;;;;;16.30;6.95;;;;;;;19.27;100.00;101435.47;1703028;84;20932;-83
2021/07/26 01:09:11;;;;;;;21.55;6.87;;;;;;;19.23;100.00;101429.77;1703122;84;21001;-81
2021/07/26 01:11:38;;;;;;;20.23;7.40;;;;;;;19.20;100.00;101430.36;1703031;84;21954;-88
2021/07/26 01:14:04;;;;;;;19.90;7.20;;;;;;;19.18;100.00;101427.69;1703029;84;21574;-83
2021/07/26 01:16:30;;;;;;;19.23;7.10;;;;;;;19.16;100.00;101429.90;1703189;84;20952;-83
2021/07/26 01:18:59;;;;;;;13.53;6.85;;;;;;;19.14;100.00;101430.18;1702969;84;21530;-84
2021/07/26 01:21:24;;;;;;;22.15;7.47;;;;;;;19.13;100.00;101429.13;1702760;84;21585;-82
2021/07/26 01:23:52;;;;;;;19.20;7.67;;;;;;;19.14;100.00;101431.55;1702881;84;21136;-82
2021/07/26 01:26:22;;;;;;;16.17;6.80;;;;;;;19.14;100.00;101429.38;1702935;84;21019;-80
2021/07/26 01:28:55;;;;;;;20.97;6.97;;;;;;;19.13;100.00;101433.22;1703277;84;20991;-82
2021/07/26 01:31:21;;;;;;;14.13;7.35;;;;;;;19.11;100.00;101438.17;1703195;84;21039;-81
2021/07/26 01:33:48;;;;;;;17.60;7.17;;;;;;;19.09;100.00;101443.11;1703038;84;21000;-85
2021/07/26 01:36:15;;;;;;;18.07;7.40;;;;;;;19.06;100.00;101440.44;1702979;84;21099;-81
2021/07/26 01:38:45;;;;;;;18.75;7.70;;;;;;;19.03;100.00;101447.30;1702896;84;21225;-82
2021/07/26 01:41:22;;;;;;;15.90;6.95;;;;;;;19.01;100.00;101445.41;1703052;84;20983;-82
2021/07/26 01:44:02;;;;;;;17.42;6.90;;;;;;;18.97;100.00;101438.92;1702925;84;21527;-84
2021/07/26 01:46:42;;;;;;;12.20;5.97;;;;;;;18.93;100.00;101446.07;1702641;84;21111;-82
2021/07/26 01:49:51;;;;;;;17.95;6.53;;;;;;;18.92;100.00;101451.28;1700394;84;21159;-82
2021/07/26 01:52:17;;;;;;;21.35;7.05;;;;;;;18.90;100.00;101443.13;1700661;84;21548;-82
2021/07/26 01:54:43;;;;;;;17.98;7.45;;;;;;;18.87;100.00;101447.25;1756205;81;21014;-80
2021/07/26 01:57:09;;;;;;;16.57;7.25;;;;;;;18.86;100.00;101457.12;1731501;82;21070;-84
2021/07/26 01:59:37;;;;;;;17.80;7.33;;;;;;;18.84;100.00;101454.67;1761940;81;21050;-82
2021/07/26 02:02:03;;;;;;;15.32;6.37;;;;;;;18.82;100.00;101459.08;1731666;82;21076;-82
2021/07/26 02:04:29;;;;;;;16.20;7.03;;;;;;;18.79;100.00;101458.27;1761779;81;20975;-80
2021/07/26 02:06:55;;;;;;;14.00;6.25;;;;;;;18.80;100.00;101463.20;1731435;82;20856;-82
2021/07/26 02:09:21;;;;;;;16.73;6.90;;;;;;;18.78;100.00;101464.04;1761838;81;20860;-82
2021/07/26 02:11:47;;;;;;;11.83;6.42;;;;;;;18.77;100.00;101463.23;1731416;82;21002;-82
2021/07/26 02:14:13;;;;;;;21.60;7.22;;;;;;;18.76;100.00;101467.05;1761802;81;21070;-82
2021/07/26 02:16:42;;;;;;;18.80;7.37;;;;;;;18.76;100.00;101469.78;1731437;82;21058;-82
2021/07/26 02:19:08;;;;;;;13.38;6.35;;;;;;;18.76;100.00;101471.14;1761497;81;21106;-86
2021/07/26 02:21:35;;;;;;;17.20;6.90;;;;;;;18.76;100.00;101473.06;1731316;82;21581;-82
2021/07/26 02:24:00;;;;;;;18.35;7.15;;;;;;;18.75;100.00;101475.55;1761836;81;21117;-82
2021/07/26 02:26:26;;;;;;;20.97;6.33;;;;;;;18.72;100.00;101474.74;1731455;82;21949;-82
2021/07/26 02:28:53;;;;;;;17.50;7.30;;;;;;;18.73;100.00;101473.09;1761681;81;20896;-81
2021/07/26 02:31:19;;;;;;;11.63;6.00;;;;;;;18.76;100.00;101474.44;1731315;82;21062;-82
2021/07/26 02:33:45;;;;;;;20.30;6.70;;;;;;;18.75;100.00;101479.09;1761834;81;21046;-82
2021/07/26 02:36:11;;;;;;;15.93;6.67;;;;;;;18.79;100.00;101473.84;1731709;82;20959;-82
2021/07/26 02:38:37;;;;;;;17.80;6.05;;;;;;;18.84;100.00;101477.88;1761809;81;21152;-88
2021/07/26 02:41:14;;;;;;;15.90;6.30;;;;;;;18.89;100.00;101481.92;1731401;82;20935;-81
2021/07/26 02:43:41;;;;;;;17.75;6.17;;;;;;;18.97;100.00;101483.16;1761903;81;21105;-81
2021/07/26 02:46:09;;;;;;;12.88;6.75;;;;;;;19.04;100.00;101481.70;1731363;82;21061;-88
2021/07/26 02:48:38;;;;;;;16.85;7.08;;;;;;;19.10;100.00;101482.44;1766296;81;21002;-81
2021/07/26 02:51:04;;;;;;;19.17;6.50;;;;;;;19.17;100.00;101484.23;1769254;79;21059;-82
2021/07/26 02:53:30;;;;;;;13.93;6.72;;;;;;;19.23;100.00;101484.42;1769184;79;20984;-81
2021/07/26 02:55:57;;;;;;;16.60;6.78;;;;;;;19.31;100.00;101487.61;1769292;81;20962;-81
2021/07/26 02:58:23;;;;;;;11.63;6.37;;;;;;;19.33;100.00;101486.77;1769239;81;21542;-82
2021/07/26 03:00:49;;;;;;;12.50;6.35;;;;;;;19.39;100.00;101496.52;1769261;80;20998;-80
2021/07/26 03:03:16;;;;;;;28.20;6.60;;;;;;;19.47;100.00;101498.02;1769345;81;21051;-82
2021/07/26 03:05:42;;;;;;;13.88;6.87;;;;;;;19.59;100.00;101499.45;1769141;81;21057;-82
2021/07/26 03:08:08;;;;;;;19.60;6.10;;;;;;;19.70;100.00;101501.75;1769033;80;21069;-82
2021/07/26 03:10:34;;;;;;;14.28;5.70;;;;;;;19.82;100.00;101500.47;1769439;79;20975;-78
2021/07/26 03:13:00;;;;;;;15.05;6.25;;;;;;;19.91;100.00;101499.51;1769390;79;21025;-81
2021/07/26 03:15:26;;;;;;;16.93;6.33;;;;;;;20.01;100.00;101504.54;1769321;79;21182;-81
2021/07/26 03:17:52;;;;;;;16.37;6.53;;;;;;;20.10;100.00;101501.36;1769251;79;20958;-82
2021/07/26 03:20:18;;;;;;;21.75;6.40;;;;;;;20.24;100.00;101498.09;1769268;79;21689;-82
2021/07/26 03:23:00;;;;;;;12.98;5.92;;;;;;;20.39;100.00;101495.05;1769176;79;20994;-81
2021/07/26 03:25:28;;;;;;;16.27;6.90;;;;;;;20.74;100.00;101503.69;1769048;81;21002;-82
2021/07/26 03:27:55;;;;;;;15.88;6.22;;;;;;;21.41;100.00;101502.22;1739679;79;21146;-81
2021/07/26 03:30:22;;;;;;;15.13;6.28;;;;;;;21.98;100.00;101503.82;1769159;79;21026;-81
2021/07/26 03:32:48;;;;;;;14.10;5.78;;;;;;;22.43;100.00;101499.60;1769213;79;21006;-85
2021/07/26 03:35:16;;;;;;;18.23;5.83;;;;;;;22.87;100.00;101489.53;1769099;79;21039;-82
2021/07/26 03:37:42;;;;;;;14.50;5.87;;;;;;;23.42;100.00;101488.94;1769176;81;21046;-81
2021/07/26 03:40:10;;;;;;;19.05;5.22;;;;;;;23.82;100.00;101490.67;1769612;79;21070;-79
2021/07/26 03:42:37;;;;;;;17.12;5.72;;;;;;;24.04;100.00;101484.95;1769168;81;21038;-82
2021/07/26 03:45:09;;;;;;;14.28;5.12;;;;;;;24.42;100.00;101493.24;1769315;79;20990;-82
2021/07/26 03:47:36;;;;;;;13.75;5.62;;;;;;;24.77;100.00;101490.30;1769273;81;21002;-80
2021/07/26 03:50:03;;;;;;;14.70;5.80;;;;;;;24.94;100.00;101489.34;1772272;81;21046;-82
2021/07/26 03:52:29;;;;;;;15.05;5.33;;;;;;;25.40;100.00;101488.13;1772226;79;21138;-80
2021/07/26 03:54:57;;;;;;;17.60;6.42;;;;;;;25.81;100.00;101483.08;1772255;81;21128;-82
2021/07/26 03:57:23;;;;;;;15.60;5.67;;;;;;;26.25;100.00;101486.97;1772361;79;21029;-82
2021/07/26 03:59:49;;;;;;;13.18;5.80;;;;;;;26.74;100.00;101494.48;1772234;79;20995;-82
2021/07/26 04:02:15;;;;;;;22.80;6.37;;;;;;;27.08;100.00;101488.16;1772172;79;21046;-82
2021/07/26 04:04:42;;;;;;;19.57;6.50;;;;;;;27.35;100.00;101490.16;1772038;79;21161;-82
2021/07/26 04:07:14;;;;;;;14.13;5.55;;;;;;;27.74;98.80;101483.52;1796954;79;21035;-80
2021/07/26 04:12:10;;;;;;;13.45;6.20;;;;;;;28.58;86.93;101491.37;1723293;83;20980;-83
2021/07/26 04:14:38;;;;;;;13.20;5.53;;;;;;;28.82;82.48;101489.73;1723012;82;21074;-84
2021/07/26 04:17:03;;;;;;;11.73;6.15;;;;;;;28.91;77.49;101492.30;1699173;83;21056;-82
2021/07/26 04:19:30;;;;;;;14.20;5.80;;;;;;;29.06;72.57;101493.45;1723511;83;21079;-81
2021/07/26 04:21:59;;;;;;;14.45;6.28;;;;;;;29.17;75.00;101491.70;1723164;83;21039;-82
2021/07/26 04:24:26;;;;;;;16.97;6.00;;;;;;;29.56;69.47;101488.33;1723433;83;21023;-82
2021/07/26 04:26:53;;;;;;;14.00;6.12;;;;;;;29.61;69.20;101487.20;1715427;83;21058;-82
2021/07/26 04:29:19;;;;;;;16.70;6.47;;;;;;;29.90;67.27;101489.95;1714726;82;21085;-82
2021/07/26 04:31:48;;;;;;;12.53;5.90;;;;;;;30.13;65.65;101492.73;1710663;82;21080;-82
2021/07/26 04:34:16;;;;;;;12.90;6.47;;;;;;;30.36;66.49;101497.50;1664060;84;21529;-86
2021/07/26 04:36:43;;;;;;;19.65;6.83;;;;;;;30.74;62.63;101496.48;1672866;85;21053;-82
2021/07/26 04:39:09;;;;;;;16.35;7.15;;;;;;;31.28;60.05;101499.38;1675635;85;21084;-81
2021/07/26 04:41:35;;;;;;;15.50;6.67;;;;;;;31.35;57.54;101494.51;1662497;84;21668;-81
2021/07/26 04:44:02;;;;;;;22.35;6.72;;;;;;;31.50;57.10;101496.27;1677318;85;21049;-82
2021/07/26 04:46:28;;;;;;;20.27;6.85;;;;;;;31.72;55.81;101500.69;1677308;84;21059;-88
2021/07/26 04:48:53;;;;;;;13.78;6.72;;;;;;;32.30;55.82;101494.45;1652957;85;21611;-81
2021/07/26 04:51:19;;;;;;;21.45;6.87;;;;;;;32.46;53.26;101494.98;1669993;85;20906;-82
2021/07/26 04:53:45;;;;;;;18.73;5.72;;;;;;;32.33;50.25;101497.87;1670256;85;21105;-80
2021/07/26 04:56:11;;;;;;;13.40;6.42;;;;;;;32.37;48.53;101497.89;1670190;85;20958;-82
2021/07/26 04:58:37;;;;;;;8.93;5.78;;;;;;;32.47;47.73;101497.97;1670045;85;20950;-82
2021/07/26 05:01:03;;;;;;;16.97;6.33;;;;;;;32.17;46.64;101481.39;1670689;85;21073;-81
2021/07/26 05:03:30;;;;;;;14.18;6.12;;;;;;;31.97;46.69;101498.16;1670128;85;21098;-82
2021/07/26 05:05:56;;;;;;;12.93;5.62;;;;;;;31.79;46.18;101494.57;1663478;85;21236;-83
2021/07/26 05:08:21;;;;;;;13.48;6.20;;;;;;;31.87;45.89;101494.06;1649254;85;20946;-83
2021/07/26 05:10:48;;;;;;;10.15;5.37;;;;;;;31.91;45.37;101497.70;1674843;84;21151;-80
2021/07/26 05:13:15;;;;;;;14.03;5.85;;;;;;;32.22;45.72;101492.80;1683654;84;21724;-82
2021/07/26 05:15:41;;;;;;;11.22;5.22;;;;;;;32.45;44.61;101494.79;1647981;85;21580;-81
2021/07/26 05:18:07;;;;;;;16.07;6.25;;;;;;;32.60;44.28;101496.28;1648093;87;21104;-83
2021/07/26 05:20:33;;;;;;;12.73;5.70;;;;;;;32.91;44.55;101491.44;1647944;85;21049;-85
2021/07/26 05:23:00;;;;;;;10.38;5.62;;;;;;;33.19;41.54;101500.58;1624760;87;21120;-82
2021/07/26 05:25:26;;;;;;;10.88;5.30;;;;;;;33.18;41.24;101495.38;1648045;87;21618;-80
2021/07/26 05:27:51;;;;;;;12.00;5.78;;;;;;;33.44;41.49;101497.05;1648194;85;20925;-82
2021/07/26 05:30:18;;;;;;;14.55;5.58;;;;;;;33.82;40.73;101489.17;1648432;85;21603;-82
2021/07/26 05:32:43;;;;;;;74.82;8.58;;;;;;;34.18;38.78;101492.81;1648162;85;21029;-84
2021/07/26 05:35:09;;;;;;;14.25;5.67;;;;;;;33.98;38.86;101490.98;1648248;85;20910;-82
2021/07/26 05:37:36;;;;;;;9.83;5.40;;;;;;;34.49;37.80;101495.97;1713272;79;21017;-85
2021/07/26 05:40:03;;;;;;;9.45;5.60;;;;;;;34.56;38.06;101496.80;1783455;79;21570;-81
2021/07/26 05:42:29;;;;;;;13.58;6.42;;;;;;;34.92;38.96;101501.48;1782962;79;21085;-82
2021/07/26 05:44:56;;;;;;;10.05;5.47;;;;;;;35.39;36.25;101507.71;1769487;81;21707;-82
2021/07/26 05:47:22;;;;;;;8.45;5.70;;;;;;;35.20;36.46;101501.37;1769078;81;21425;-83
2021/07/26 05:49:48;;;;;;;11.55;5.67;;;;;;;35.36;36.20;101498.11;1769246;81;20962;-83
2021/07/26 05:52:14;;;;;;;7.92;5.67;;;;;;;35.14;36.32;101498.80;1769381;81;21686;-83
2021/07/26 05:54:40;;;;;;;10.98;6.67;;;;;;;35.34;36.76;101501.13;1769341;81;21119;-82
2021/07/26 05:57:14;;;;;;;9.68;5.75;;;;;;;35.40;35.35;101499.48;1770911;79;20959;-82
2021/07/26 05:59:39;;;;;;;11.50;5.80;;;;;;;35.79;35.59;101501.26;1766383;79;21018;-81
2021/07/26 06:02:08;;;;;;;18.10;6.20;;;;;;;35.87;34.42;101497.19;1780185;79;20836;-79
2021/07/26 06:04:33;;;;;;;9.38;5.65;;;;;;;35.79;33.92;101504.06;1767786;79;21034;-83
2021/07/26 06:07:00;;;;;;;15.32;5.15;;;;;;;35.75;33.94;101494.89;1767811;81;21663;-82
2021/07/26 06:09:26;;;;;;;8.15;5.03;;;;;;;36.38;34.94;101492.13;1767124;81;21084;-82
2021/07/26 06:11:54;;;;;;;11.55;5.50;;;;;;;37.15;35.10;101491.50;1767690;81;21507;-81
2021/07/26 06:14:22;;;;;;;13.32;5.78;;;;;;;37.78;32.39;101489.01;1767075;81;21070;-83
2021/07/26 06:16:52;;;;;;;10.08;5.28;;;;;;;37.46;32.00;101495.89;1767750;81;20995;-88
2021/07/26 06:19:20;;;;;;;25.97;5.20;;;;;;;37.66;32.29;101484.77;1767732;81;21098;-83
2021/07/26 06:21:54;;;;;;;9.63;5.03;;;;;;;38.18;31.32;101497.59;1767578;81;21021;-82
2021/07/26 06:24:22;;;;;;;11.93;4.95;;;;;;;38.39;31.06;101488.80;1761799;81;21789;-81
2021/07/26 06:26:50;;;;;;;19.98;5.25;;;;;;;38.29;29.88;101484.73;1761820;81;21143;-86
2021/07/26 06:29:16;;;;;;;14.60;5.25;;;;;;;37.98;28.99;101491.93;1761794;81;21081;-83
2021/07/26 06:31:43;;;;;;;10.23;5.10;;;;;;;37.59;29.43;101490.49;1761545;81;21071;-84
2021/07/26 06:34:10;;;;;;;10.60;4.83;;;;;;;37.86;29.48;101489.70;1760914;81;21002;-82
2021/07/26 06:36:37;;;;;;;22.95;5.72;;;;;;;38.08;29.41;101485.30;1761579;81;21133;-82
2021/07/26 06:39:04;;;;;;;28.87;5.72;;;;;;;38.37;28.56;101487.61;1761823;81;21502;-82
2021/07/26 06:41:30;;;;;;;34.50;5.95;;;;;;;38.51;29.35;101485.97;1761718;81;21050;-81
2021/07/26 06:43:56;;;;;;;15.38;5.08;;;;;;;38.82;28.12;101482.30;1761605;81;21183;-83
2021/07/26 06:46:22;;;;;;;15.23;5.17;;;;;;;38.80;27.25;101479.77;1761454;81;21041;-82
2021/07/26 06:48:48;;;;;;;14.47;5.15;;;;;;;38.82;27.41;101479.48;1758981;81;21071;-88
2021/07/26 06:51:15;;;;;;;21.02;4.80;;;;;;;38.73;27.29;101484.91;1749575;82;21016;-82
2021/07/26 06:53:41;;;;;;;19.50;4.53;;;;;;;38.81;26.96;101483.55;1749698;82;21090;-82
2021/07/26 06:56:09;;;;;;;23.02;5.37;;;;;;;38.87;26.63;101490.12;1749294;82;21555;-83
2021/07/26 06:58:38;;;;;;;10.70;4.83;;;;;;;38.79;26.25;101483.80;1749622;82;21080;-82
2021/07/26 07:01:11;;;;;;;7.45;4.67;;;;;;;38.76;26.11;101491.09;1749478;82;21067;-82
2021/07/26 07:03:39;;;;;;;19.98;5.50;;;;;;;38.72;26.55;101492.41;1703961;84;21179;-87
2021/07/26 07:06:08;;;;;;;34.05;6.25;;;;;;;38.99;25.59;101493.68;1704221;84;21630;-82
2021/07/26 07:08:36;;;;;;;21.55;5.75;;;;;;;38.92;25.46;101491.02;1704112;84;21888;-83
2021/07/26 07:11:13;;;;;;;13.78;5.00;;;;;;;39.18;25.75;101492.87;1704130;84;21133;-82
2021/07/26 07:13:45;;;;;;;10.75;4.72;;;;;;;39.35;25.39;101495.73;1591893;90;21130;-78
2021/07/26 07:16:19;;;;;;;8.75;4.45;;;;;;;39.55;25.28;101492.24;1591918;90;21108;-83
2021/07/26 07:18:49;;;;;;;9.65;4.65;;;;;;;39.89;25.42;101492.47;1591720;90;21689;-83
2021/07/26 07:21:24;;;;;;;9.08;4.75;;;;;;;40.14;24.37;101494.01;1526634;93;21743;-81
2021/07/26 07:23:51;;;;;;;7.70;4.90;;;;;;;40.00;24.37;101502.84;1478672;94;21150;-80
2021/07/26 07:26:19;;;;;;;8.25;4.75;;;;;;;39.85;24.74;101498.18;1530522;93;21165;-84
2021/07/26 07:28:47;;;;;;;8.80;5.17;;;;;;;40.10;25.12;101501.01;1488405;95;21104;-82
2021/07/26 07:31:15;;;;;;;13.13;5.25;;;;;;;40.60;24.54;101500.47;1446591;98;21055;-84
2021/07/26 07:33:41;;;;;;;10.40;5.47;;;;;;;40.56;24.05;101503.20;1468150;97;21180;-82
2021/07/26 07:36:07;;;;;;;26.23;5.97;;;;;;;40.88;24.79;101498.08;1444354;99;21247;-83
2021/07/26 07:38:34;;;;;;;8.58;5.30;;;;;;;41.04;23.65;101492.38;1462694;98;21148;-82
2021/07/26 07:41:02;;;;;;;13.90;5.62;;;;;;;40.93;23.51;101496.73;1453043;97;21164;-82
2021/07/26 07:43:29;;;;;;;7.03;4.40;;;;;;;40.84;23.30;101501.64;1463081;96;21209;-83
2021/07/26 07:45:56;;;;;;;12.90;4.87;;;;;;;40.41;22.55;101505.01;1462837;98;21272;-82
2021/07/26 07:50:52;;;;;;;7.70;4.45;;;;;;;40.15;23.51;101500.45;1410504;99;21139;-81
2021/07/26 07:53:18;;;;;;;16.48;5.15;;;;;;;40.37;23.72;101502.13;1410026;101;21103;-82
2021/07/26 07:55:45;;;;;;;9.90;4.55;;;;;;;40.29;23.32;101506.38;1410098;101;21194;-82
2021/07/26 07:58:11;;;;;;;8.18;4.40;;;;;;;40.13;23.38;101498.70;1410504;100;21156;-82
2021/07/26 08:00:37;;;;;;;8.23;4.28;;;;;;;40.27;24.14;101499.77;1419978;100;21789;-84
2021/07/26 08:03:04;;;;;;;7.17;4.33;;;;;;;40.89;23.94;101496.03;1437467;99;21075;-86
2021/07/26 08:05:31;;;;;;;6.22;4.62;;;;;;;41.10;23.34;101494.03;1437591;99;21162;-81
2021/07/26 08:07:57;;;;;;;10.08;4.85;;;;;;;41.02;23.53;101499.69;1437452;99;21090;-84
2021/07/26 08:10:24;;;;;;;10.53;4.33;;;;;;;41.00;23.12;101501.55;1519077;91;21137;-84
2021/07/26 08:12:50;;;;;;;10.93;4.87;;;;;;;41.25;23.83;101492.97;1583103;90;21601;-84
2021/07/26 08:15:17;;;;;;;9.83;4.87;;;;;;;42.08;22.65;101499.59;1572095;91;21073;-87
2021/07/26 08:17:47;;;;;;;11.63;4.83;;;;;;;41.86;21.65;101496.06;1574263;88;21069;-82
2021/07/26 08:20:17;;;;;;;8.53;4.28;;;;;;;41.34;21.77;101497.95;1643840;87;21051;-83
2021/07/26 08:22:45;;;;;;;5.47;4.10;;;;;;;41.16;21.82;101497.87;1620357;88;21826;-83
2021/07/26 08:25:13;;;;;;;5.67;4.10;;;;;;;41.85;22.34;101495.09;1643734;87;21111;-82
2021/07/26 08:27:57;;;;;;;21.97;5.37;;;;;;;42.07;21.61;101504.48;1620293;88;21727;-81
2021/07/26 08:30:32;;;;;;;7.83;4.20;;;;;;;41.75;21.24;101497.83;1643883;87;21065;-83
2021/07/26 08:35:59;;;;;;;;;;;;;;;;;;;;;
2021/07/26 08:44:15;;;;;;;;;;;;;;;;;;;;;
2021/07/26 09:11:43;;;;;;;;;;;;;;;40.69;20.62;101491.99;1311579;109;21669;-83
2021/07/26 09:14:16;;;;;;;7.72;3.85;;;;;;;41.05;20.45;101478.40;1309687;108;21128;-78
2021/07/26 09:16:51;;;;;;;5.72;3.70;;;;;;;41.54;19.62;101468.83;1320745;106;21163;-81
2021/07/26 09:19:13;;;;;;;;;;;;;;;41.84;20.11;101473.06;1326052;108;21380;-88
2021/07/26 09:21:53;;;;;;;9.53;3.98;;;;;;;41.64;20.24;101468.29;1345918;105;20900;-83
2021/07/26 09:24:28;;;;;;;6.30;4.42;;;;;;;41.23;20.62;101477.05;1381527;103;21200;-84
2021/07/26 09:27:13;;;;;;;4.97;4.08;;;;;;;41.67;20.50;101476.66;1375513;103;21185;-82
2021/07/26 09:29:39;;;;;;;9.93;4.25;;;;;;;41.86;19.70;101477.66;1387122;103;21190;-81
2021/07/26 09:32:05;;;;;;;7.50;4.67;;;;;;;41.10;19.75;101469.20;1384164;103;21032;-82
2021/07/26 09:34:37;;;;;;;8.65;4.65;;;;;;;41.13;20.51;101468.30;1375856;103;21189;-82
2021/07/26 09:37:17;;;;;;;;;;;;;;;40.69;20.65;101460.27;1403272;99;21101;-81
2021/07/26 09:39:43;;;;;;;8.33;4.58;;;;;;;40.36;20.81;101474.50;1471716;91;22104;-81
2021/07/26 09:42:26;;;;;;;7.10;3.70;;;;;;;40.42;20.86;101474.75;1567660;91;21118;-81
2021/07/26 09:44:53;;;;;;;5.87;3.65;;;;;;;40.40;20.95;101474.39;1543565;93;21059;-83
2021/07/26 09:47:22;;;;;;;8.65;3.80;;;;;;;40.75;20.81;101463.34;1590065;85;21150;-81
2021/07/26 09:49:49;;;;;;;11.83;4.50;;;;;;;40.75;20.81;101463.34;1693535;83;21019;-81
2021/07/26 09:52:21;;;;;;;14.90;5.05;;;;;;;40.32;20.91;101468.76;1754875;81;21102;-81
2021/07/26 09:54:49;;;;;;;10.75;4.28;;;;;;;39.74;21.17;101466.00;1767248;78;21117;-84
2021/07/26 09:57:21;;;;;;;;;;;;;;;39.40;21.27;101461.38;1758008;80;21024;-82
2021/07/26 09:59:48;;;;;;;20.70;4.40;;;;;;;39.03;21.41;101457.73;1755087;80;20242;-81
2021/07/26 10:02:18;;;;;;;7.95;3.70;;;;;;;38.45;21.76;101458.11;1711301;81;21427;-81
2021/07/26 10:04:47;;;;;;;38.80;5.28;;;;;;;38.31;21.99;101452.72;1723243;81;21182;-81
2021/07/26 10:07:16;;;;;;;9.68;3.80;;;;;;;38.25;22.17;101456.65;1718973;81;21061;-81
2021/07/26 10:09:45;;;;;;;15.05;4.90;;;;;;;38.03;22.17;101448.41;1721604;81;21842;-82
2021/07/26 10:12:19;;;;;;;25.08;5.20;;;;;;;38.07;22.24;101446.34;1718720;83;20986;-80
2021/07/26 10:14:47;;;;;;;12.07;4.10;;;;;;;38.18;22.95;101449.14;1718588;83;21021;-82
2021/07/26 10:17:14;;;;;;;7.85;3.87;;;;;;;37.76;23.36;101451.26;1718309;83;21134;-83
2021/07/26 10:19:40;;;;;;;9.83;3.98;;;;;;;37.50;23.25;101446.63;1718493;82;21022;-81
2021/07/26 10:22:10;;;;;;;8.68;3.80;;;;;;;37.53;23.65;101445.78;1710430;83;20899;-82
2021/07/26 10:24:47;;;;;;;7.55;4.03;;;;;;;37.56;23.21;101441.33;1665070;86;21084;-80
2021/07/26 10:27:32;;;;;;;6.85;3.70;;;;;;;37.48;23.31;101435.83;1649794;85;21121;-82
2021/07/26 10:29:59;;;;;;;12.45;3.98;;;;;;;37.24;24.75;101436.95;1696583;84;21077;-83
2021/07/26 10:32:37;;;;;;;8.13;3.92;;;;;;;37.16;23.49;101430.66;1685517;84;21092;-83
2021/07/26 10:35:20;;;;;;;8.28;4.17;;;;;;;37.07;24.02;101428.19;1680265;84;21524;-85
2021/07/26 10:37:48;;;;;;;10.85;3.98;;;;;;;37.35;24.25;101431.17;1673168;84;21222;-80
2021/07/26 10:40:40;;;;;;;6.30;3.67;;;;;;;37.17;23.87;101425.83;1654593;85;21110;-80
2021/07/26 10:43:09;;;;;;;7.75;3.30;;;;;;;37.16;24.50;101426.44;1645042;86;21103;-80
2021/07/26 10:45:46;;;;;;;5.75;3.58;;;;;;;37.43;23.33;101422.20;1656703;86;21043;-83
2021/07/26 10:48:30;;;;;;;7.03;3.72;;;;;;;37.63;23.32;101422.94;1638694;85;21031;-82
2021/07/26 10:50:59;;;;;;;6.15;3.58;;;;;;;37.46;23.86;101421.35;1642310;85;21235;-80
2021/07/26 10:53:48;;;;;;;6.40;3.70;;;;;;;37.10;24.55;101412.67;1616035;87;21247;-81
2021/07/26 10:56:16;;;;;;;10.72;3.47;;;;;;;37.17;24.13;101420.20;1627221;87;22248;-82
2021/07/26 10:59:11;;;;;;;7.22;3.52;;;;;;;36.68;24.56;101419.62;1631331;87;21204;-82
2021/07/26 11:01:38;;;;;;;8.08;3.55;;;;;;;36.43;25.48;101419.91;1552084;91;21132;-82
2021/07/26 11:04:24;;;;;;;8.70;3.70;;;;;;;36.36;24.83;101416.58;1552408;91;21666;-82
2021/07/26 11:06:59;;;;;;;11.63;4.10;;;;;;;36.39;25.37;101419.34;1481542;96;21575;-82
2021/07/26 11:09:41;;;;;;;13.00;4.12;;;;;;;36.33;25.42;101422.41;1536297;92;21188;-83
2021/07/26 11:12:08;;;;;;;5.92;3.90;;;;;;;36.58;25.10;101418.55;1508690;94;21086;-81
2021/07/26 11:14:34;;;;;;;9.70;3.98;;;;;;;36.54;24.92;101417.19;1509013;95;21121;-82
2021/07/26 11:17:07;;;;;;;10.08;3.98;;;;;;;36.51;25.15;101410.98;1508828;95;21029;-86
2021/07/26 11:19:49;;;;;;;7.42;4.37;;;;;;;36.39;25.05;101411.53;1506805;94;21601;-77
2021/07/26 11:22:23;;;;;;;15.58;3.77;;;;;;;36.34;24.47;101409.95;1496104;95;21158;-80
2021/07/26 11:24:53;;;;;;;8.65;4.15;;;;;;;36.19;24.77;101402.91;1498751;95;21169;-82
2021/07/26 11:27:33;;;;;;;8.78;4.55;;;;;;;36.44;24.87;101406.04;1498752;95;21151;-81
2021/07/26 11:29:59;;;;;;;22.70;4.55;;;;;;;36.25;24.54;101397.64;1524372;90;21106;-84
2021/07/26 11:32:27;;;;;;;13.35;4.50;;;;;;;36.17;24.99;101402.53;1608158;87;21071;-80
2021/07/26 11:34:59;;;;;;;9.75;4.10;;;;;;;36.01;24.28;101401.67;1632149;87;21355;-83
2021/07/26 11:37:39;;;;;;;6.58;3.90;;;;;;;35.96;24.92;101406.32;1610654;87;21608;-88
2021/07/26 11:40:10;;;;;;;11.45;4.03;;;;;;;35.67;24.09;101407.97;1632082;87;21774;-81
2021/07/26 11:42:42;;;;;;;8.15;3.95;;;;;;;35.64;25.26;101407.40;1632325;87;21147;-84
2021/07/26 11:45:17;;;;;;;7.87;3.90;;;;;;;35.79;24.37;101407.28;1745851;82;21460;-84
2021/07/26 11:47:51;;;;;;;12.35;4.83;;;;;;;36.10;24.24;101402.00;1749258;81;21951;-87
2021/07/26 11:52:54;;;;;;;9.33;4.25;;;;;;;36.35;24.08;101397.50;1745645;82;21673;-85
2021/07/26 11:55:23;;;;;;;5.97;3.70;;;;;;;36.24;24.01;101409.48;1740278;82;21519;-85
2021/07/26 11:58:03;;;;;;;11.12;4.75;;;;;;;35.97;23.78;101397.30;1718593;83;21168;-86
2021/07/26 12:00:42;;;;;;;11.33;4.03;;;;;;;36.13;23.72;101398.36;1718954;83;21305;-85
2021/07/26 12:03:09;;;;;;;9.40;4.60;;;;;;;36.43;23.59;101392.61;1717200;83;21658;-87
2021/07/26 12:05:36;;;;;;;10.90;4.25;;;;;;;36.37;23.00;101395.08;1718951;83;21038;-85
2021/07/26 12:08:12;;;;;;;10.75;3.83;;;;;;;36.40;23.58;101394.86;1718967;83;21098;-87
2021/07/26 12:10:39;;;;;;;13.30;4.50;;;;;;;36.60;22.91;101392.24;1671409;85;21073;-84